Time;durP1;ratioP1;P1;durP2;ratioP2;P2;SDS_P1;SDS_P2;PMS_P1;PMS_P2;Temp;Humidity;BMP_temperature;BMP_pressure;BME280_temperature;BME280_humidity;BME280_pressure;Samples;Min_cycle;Max_cycle;Signal;HPM_P1;HPM_P2
2023/11/14 00:00:11;;;;;;;;;;;;;;;;;;5017850;28;19929;-75
2023/11/14 00:02:38;;;;;;;;;;;;;;;;;;5012850;28;19968;-75
2023/11/14 00:05:05;;;;;;;;;;;;;;;;;;5013189;28;19963;-75
2023/11/14 00:07:32;;;;;;;;;;;;;;;;;;5014003;28;20020;-74
2023/11/14 00:09:59;;;;;;;;;;;;;;;;;;5014193;28;20375;-75
2023/11/14 00:12:26;;;;;;;;;;;;;;;;;;5015068;28;19933;-74
2023/11/14 00:14:53;;;;;;;;;;;;;;;;;;5016330;28;19926;-76
2023/11/14 00:17:20;;;;;;;;;;;;;;;;;;5017004;28;19925;-76
2023/11/14 00:19:47;;;;;;;;;;;;;;;;;;5010392;28;19926;-75
2023/11/14 00:22:14;;;;;;;;;;;;;;;;;;5034222;28;19925;-76
2023/11/14 00:24:41;;;;;;;;;;;;;;;;;;5012949;28;20024;-77
2023/11/14 00:27:08;;;;;;;;;;;;;;;;;;5013906;28;20435;-76
2023/11/14 00:29:36;;;;;;;;;;;;;;;;;;5013755;28;20330;-76
2023/11/14 00:32:03;;;;;;;;;;;;;;;;;;5018068;28;19925;-76
2023/11/14 00:34:30;;;;;;;;;;;;;;;;;;5020397;28;19987;-76
2023/11/14 00:36:57;;;;;;;;;;;;;;;;;;5013431;28;20330;-76
2023/11/14 00:39:25;;;;;;;;;;;;;;;;;;5013003;28;19926;-76
2023/11/14 00:41:53;;;;;;;;;;;;;;;;;;5013606;28;19932;-76
2023/11/14 00:44:21;;;;;;;;;;;;;;;;;;5012743;28;19926;-76
2023/11/14 00:46:49;;;;;;;;;;;;;;;;;;5012846;28;19965;-76
2023/11/14 00:49:16;;;;;;;;;;;;;;;;;;5013463;28;19926;-77
2023/11/14 00:51:45;;;;;;;;;;;;;;;;;;5023085;28;20443;-76
2023/11/14 00:54:12;;;;;;;;;;;;;;;;;;5016810;28;20020;-77
2023/11/14 00:56:39;;;;;;;;;;;;;;;;;;5013691;28;19972;-77
2023/11/14 00:59:08;;;;;;;;;;;;;;;;;;5013872;28;20035;-76
2023/11/14 01:01:35;;;;;;;;;;;;;;;;;;5011558;28;19925;-76
2023/11/14 01:04:02;;;;;;;;;;;;;;;;;;5012550;28;19949;-76
2023/11/14 01:06:29;;;;;;;;;;;;;;;;;;5012769;28;19929;-76
2023/11/14 01:08:59;;;;;;;;;;;;;;;;;;5014131;28;19925;-76
2023/11/14 01:11:26;;;;;;;;;;;;;;;;;;5011904;28;19944;-76
2023/11/14 01:13:53;;;;;;;;;;;;;;;;;;5010803;28;19953;-76
2023/11/14 01:16:20;;;;;;;;;;;;;;;;;;5011748;28;19929;-76
2023/11/14 01:18:47;;;;;;;;;;;;;;;;;;5013381;28;19925;-76
2023/11/14 01:21:14;;;;;;;;;;;;;;;;;;5026061;28;19979;-76
2023/11/14 01:23:42;;;;;;;;;;;;;;;;;;5012222;28;19925;-75
2023/11/14 01:26:09;;;;;;;;;;;;;;;;;;5014393;28;19976;-76
2023/11/14 01:28:36;;;;;;;;;;;;;;;;;;5023011;28;20438;-76
2023/11/14 01:31:03;;;;;;;;;;;;;;;;;;5022990;28;19926;-76
2023/11/14 01:33:30;;;;;;;;;;;;;;;;;;5017821;28;20033;-76
2023/11/14 01:35:57;;;;;;;;;;;;;;;;;;5016695;28;19986;-76
2023/11/14 01:38:24;;;;;;;;;;;;;;;;;;5017200;28;19925;-76
2023/11/14 01:40:51;;;;;;;;;;;;;;;;;;5017248;28;19925;-76
2023/11/14 01:43:18;;;;;;;;;;;;;;;;;;5018590;28;19925;-76
2023/11/14 01:45:45;;;;;;;;;;;;;;;;;;5016293;28;19980;-76
2023/11/14 01:48:12;;;;;;;;;;;;;;;;;;5017682;28;20003;-77
2023/11/14 01:50:39;;;;;;;;;;;;;;;;;;5016104;28;19926;-76
2023/11/14 01:53:07;;;;;;;;;;;;;;;;;;5016519;28;19972;-76
2023/11/14 01:55:34;;;;;;;;;;;;;;;;;;5013765;28;19926;-76
2023/11/14 01:58:01;;;;;;;;;;;;;;;;;;5017115;28;19925;-75
2023/11/14 02:00:28;;;;;;;;;;;;;;;;;;5017283;28;19925;-76
2023/11/14 02:02:55;;;;;;;;;;;;;;;;;;5016387;28;20016;-75
2023/11/14 02:05:22;;;;;;;;;;;;;;;;;;5016135;28;19933;-75
2023/11/14 02:07:49;;;;;;;;;;;;;;;;;;5018610;28;19980;-75
2023/11/14 02:10:16;;;;;;;;;;;;;;;;;;5036267;28;19933;-75
2023/11/14 02:12:43;;;;;;;;;;;;;;;;;;5024119;28;19926;-75
2023/11/14 02:15:14;;;;;;;;;;;;;;;;;;5013670;28;19936;-74
2023/11/14 02:17:41;;;;;;;;;;;;;;;;;;5016431;28;20352;-76
2023/11/14 02:20:08;;;;;;;;;;;;;;;;;;5015116;28;19957;-75
2023/11/14 02:22:35;;;;;;;;;;;;;;;;;;5015691;28;19945;-76
2023/11/14 02:25:03;;;;;;;;;;;;;;;;;;5015734;28;19934;-75
2023/11/14 02:27:30;;;;;;;;;;;;;;;;;;5016298;28;19978;-76
2023/11/14 02:29:57;;;;;;;;;;;;;;;;;;5014952;28;19929;-76
2023/11/14 02:32:24;;;;;;;;;;;;;;;;;;5015734;28;19925;-76
2023/11/14 02:34:51;;;;;;;;;;;;;;;;;;5029498;28;19929;-77
2023/11/14 02:37:18;;;;;;;;;;;;;;;;;;5015677;28;19965;-76
2023/11/14 02:39:45;;;;;;;;;;;;;;;;;;5014316;28;20020;-75
2023/11/14 02:42:12;;;;;;;;;;;;;;;;;;5019908;28;20020;-76
2023/11/14 02:44:39;;;;;;;;;;;;;;;;;;5015539;28;19979;-75
2023/11/14 02:47:06;;;;;;;;;;;;;;;;;;5014231;28;19968;-76
2023/11/14 02:49:33;;;;;;;;;;;;;;;;;;5015658;28;19973;-78
2023/11/14 02:52:01;;;;;;;;;;;;;;;;;;5032110;28;19969;-76
2023/11/14 02:54:28;;;;;;;;;;;;;;;;;;5015270;28;19973;-78
2023/11/14 02:56:55;;;;;;;;;;;;;;;;;;5014275;28;19969;-77
2023/11/14 02:59:22;;;;;;;;;;;;;;;;;;5015406;28;19975;-77
2023/11/14 03:01:50;;;;;;;;;;;;;;;;;;5013093;28;20273;-77
2023/11/14 03:04:17;;;;;;;;;;;;;;;;;;5000277;28;19932;-77
2023/11/14 03:06:44;;;;;;;;;;;;;;;;;;5014657;28;19933;-77
2023/11/14 03:09:13;;;;;;;;;;;;;;;;;;5007278;28;19926;-77
2023/11/14 03:11:40;;;;;;;;;;;;;;;;;;5012144;28;20016;-75
2023/11/14 03:14:08;;;;;;;;;;;;;;;;;;5014452;28;19932;-77
2023/11/14 03:16:35;;;;;;;;;;;;;;;;;;5013558;28;19979;-75
2023/11/14 03:19:02;;;;;;;;;;;;;;;;;;5013302;28;19937;-76
2023/11/14 03:21:29;;;;;;;;;;;;;;;;;;5014367;28;19926;-77
2023/11/14 03:23:56;;;;;;;;;;;;;;;;;;5028167;28;19925;-76
2023/11/14 03:26:23;;;;;;;;;;;;;;;;;;5013688;28;20005;-75
2023/11/14 03:28:50;;;;;;;;;;;;;;;;;;5011027;28;20015;-76
2023/11/14 03:31:17;;;;;;;;;;;;;;;;;;5012933;28;19972;-76
2023/11/14 03:33:44;;;;;;;;;;;;;;;;;;5012107;28;20339;-75
2023/11/14 03:36:11;;;;;;;;;;;;;;;;;;5003821;28;20345;-76
2023/11/14 03:38:38;;;;;;;;;;;;;;;;;;5013422;28;19925;-76
2023/11/14 03:41:05;;;;;;;;;;;;;;;;;;5014158;28;19965;-76
2023/11/14 03:43:32;;;;;;;;;;;;;;;;;;5018514;28;19971;-76
2023/11/14 03:45:59;;;;;;;;;;;;;;;;;;5017671;28;19957;-76
2023/11/14 03:48:26;;;;;;;;;;;;;;;;;;5012642;28;20028;-76
2023/11/14 03:50:53;;;;;;;;;;;;;;;;;;5013188;28;20033;-76
2023/11/14 03:53:20;;;;;;;;;;;;;;;;;;5013455;28;20072;-76
2023/11/14 03:55:47;;;;;;;;;;;;;;;;;;5012929;28;19933;-77
2023/11/14 03:58:17;;;;;;;;;;;;;;;;;;5013334;28;19930;-76
2023/11/14 04:00:44;;;;;;;;;;;;;;;;;;5011152;28;19997;-77
2023/11/14 04:03:11;;;;;;;;;;;;;;;;;;5019080;28;19929;-77
2023/11/14 04:05:38;;;;;;;;;;;;;;;;;;5013096;28;19941;-76
2023/11/14 04:08:05;;;;;;;;;;;;;;;;;;5005966;28;20041;-77
2023/11/14 04:10:32;;;;;;;;;;;;;;;;;;5012220;28;20607;-74
2023/11/14 04:12:59;;;;;;;;;;;;;;;;;;5014414;28;19980;-76
2023/11/14 04:15:26;;;;;;;;;;;;;;;;;;5014596;28;19929;-76
2023/11/14 04:17:53;;;;;;;;;;;;;;;;;;5014101;28;19929;-78
2023/11/14 04:20:20;;;;;;;;;;;;;;;;;;5012891;28;19925;-77
2023/11/14 04:22:47;;;;;;;;;;;;;;;;;;5014557;28;19980;-77
2023/11/14 04:25:14;;;;;;;;;;;;;;;;;;5014546;28;19969;-77
2023/11/14 04:27:41;;;;;;;;;;;;;;;;;;5013278;28;20409;-77
2023/11/14 04:30:10;;;;;;;;;;;;;;;;;;5011736;28;20336;-76
2023/11/14 04:32:37;;;;;;;;;;;;;;;;;;5010023;28;19932;-77
2023/11/14 04:35:04;;;;;;;;;;;;;;;;;;5012736;28;19926;-76
2023/11/14 04:37:31;;;;;;;;;;;;;;;;;;5013572;28;20116;-77
2023/11/14 04:39:58;;;;;;;;;;;;;;;;;;5012381;28;19931;-77
2023/11/14 04:42:25;;;;;;;;;;;;;;;;;;5013892;28;19979;-74
2023/11/14 04:44:52;;;;;;;;;;;;;;;;;;5013306;28;19979;-74
2023/11/14 04:47:19;;;;;;;;;;;;;;;;;;5013570;28;19969;-73
2023/11/14 04:49:46;;;;;;;;;;;;;;;;;;5014830;28;19957;-75
2023/11/14 04:52:13;;;;;;;;;;;;;;;;;;5012852;28;20020;-75
2023/11/14 04:54:40;;;;;;;;;;;;;;;;;;5012919;28;19980;-75
2023/11/14 04:57:07;;;;;;;;;;;;;;;;;;5014187;28;19925;-75
2023/11/14 04:59:34;;;;;;;;;;;;;;;;;;5012362;28;19972;-77
2023/11/14 05:02:01;;;;;;;;;;;;;;;;;;5012667;28;19964;-76
2023/11/14 05:04:29;;;;;;;;;;;;;;;;;;5015132;28;19926;-75
2023/11/14 05:06:56;;;;;;;;;;;;;;;;;;5015640;28;19932;-75
2023/11/14 05:09:23;;;;;;;;;;;;;;;;;;5015465;28;20020;-76
2023/11/14 05:11:50;;;;;;;;;;;;;;;;;;5016271;28;19991;-77
2023/11/14 05:14:17;;;;;;;;;;;;;;;;;;5017922;28;19967;-76
2023/11/14 05:16:44;;;;;;;;;;;;;;;;;;5015711;28;19980;-76
2023/11/14 05:19:11;;;;;;;;;;;;;;;;;;5024785;28;19925;-77
2023/11/14 05:21:38;;;;;;;;;;;;;;;;;;5022826;28;19967;-76
2023/11/14 05:24:05;;;;;;;;;;;;;;;;;;5035928;28;20012;-77
2023/11/14 05:26:32;;;;;;;;;;;;;;;;;;5021522;28;19941;-75
2023/11/14 05:28:59;;;;;;;;;;;;;;;;;;5017425;28;20004;-76
2023/11/14 05:31:26;;;;;;;;;;;;;;;;;;5015842;28;20020;-77
2023/11/14 05:33:53;;;;;;;;;;;;;;;;;;5013756;28;19926;-75
2023/11/14 05:36:20;;;;;;;;;;;;;;;;;;5016562;28;20012;-77
2023/11/14 05:38:47;;;;;;;;;;;;;;;;;;5016548;28;19961;-77
2023/11/14 05:41:16;;;;;;;;;;;;;;;;;;5011217;28;19926;-75
2023/11/14 05:43:44;;;;;;;;;;;;;;;;;;5024375;28;19925;-74
2023/11/14 05:46:11;;;;;;;;;;;;;;;;;;5015381;28;19932;-76
2023/11/14 05:48:38;;;;;;;;;;;;;;;;;;5014459;28;19964;-75
2023/11/14 05:51:05;;;;;;;;;;;;;;;;;;5014993;28;20008;-75
2023/11/14 05:53:32;;;;;;;;;;;;;;;;;;5016310;28;20032;-75
2023/11/14 05:55:59;;;;;;;;;;;;;;;;;;5015410;28;20024;-76
2023/11/14 05:58:26;;;;;;;;;;;;;;;;;;5030795;28;19929;-75
2023/11/14 06:00:53;;;;;;;;;;;;;;;;;;5025311;28;19925;-76
2023/11/14 06:03:20;;;;;;;;;;;;;;;;;;5014666;28;19926;-76
2023/11/14 06:05:47;;;;;;;;;;;;;;;;;;5013528;28;20431;-76
2023/11/14 06:08:14;;;;;;;;;;;;;;;;;;5014812;28;20372;-77
2023/11/14 06:10:41;;;;;;;;;;;;;;;;;;5015677;28;20372;-76
2023/11/14 06:13:08;;;;;;;;;;;;;;;;;;5015295;28;19972;-76
2023/11/14 06:15:35;;;;;;;;;;;;;;;;;;5015889;28;19968;-76
2023/11/14 06:18:02;;;;;;;;;;;;;;;;;;5014750;28;19967;-76
2023/11/14 06:20:29;;;;;;;;;;;;;;;;;;5017506;28;19930;-75
2023/11/14 06:22:56;;;;;;;;;;;;;;;;;;5015055;28;19993;-76
2023/11/14 06:25:23;;;;;;;;;;;;;;;;;;5015160;28;19963;-75
2023/11/14 06:27:50;;;;;;;;;;;;;;;;;;5014634;28;20012;-76
2023/11/14 06:30:17;;;;;;;;;;;;;;;;;;5015063;28;20422;-76
2023/11/14 06:32:45;;;;;;;;;;;;;;;;;;5012257;28;19941;-77
2023/11/14 06:35:12;;;;;;;;;;;;;;;;;;5006018;28;19933;-76
2023/11/14 06:37:39;;;;;;;;;;;;;;;;;;5015790;28;20281;-77
2023/11/14 06:40:06;;;;;;;;;;;;;;;;;;5019875;28;19976;-77
2023/11/14 06:42:32;;;;;;;;;;;;;;;;;;5013378;28;20285;-77
2023/11/14 06:45:00;;;;;;;;;;;;;;;;;;5014892;28;20016;-77
2023/11/14 06:47:27;;;;;;;;;;;;;;;;;;5011281;28;19951;-78
2023/11/14 06:49:54;;;;;;;;;;;;;;;;;;5025809;28;19925;-77
2023/11/14 06:52:21;;;;;;;;;;;;;;;;;;5014907;28;20568;-76
2023/11/14 06:54:48;;;;;;;;;;;;;;;;;;5013925;28;19926;-76
2023/11/14 06:57:15;;;;;;;;;;;;;;;;;;5009091;28;19972;-78
2023/11/14 06:59:42;;;;;;;;;;;;;;;;;;5012058;28;19932;-77
2023/11/14 07:02:09;;;;;;;;;;;;;;;;;;5014373;28;19926;-76
2023/11/14 07:04:37;;;;;;;;;;;;;;;;;;5009131;28;19953;-77
2023/11/14 07:07:04;;;;;;;;;;;;;;;;;;5014087;28;20343;-76
2023/11/14 07:09:31;;;;;;;;;;;;;;;;;;5007083;28;19973;-73
2023/11/14 07:11:58;;;;;;;;;;;;;;;;;;5015116;28;19925;-69
2023/11/14 07:14:26;;;;;;;;;;;;;;;;;;5011551;28;20395;-70
2023/11/14 07:16:53;;;;;;;;;;;;;;;;;;5008995;28;19953;-71
2023/11/14 07:19:20;;;;;;;;;;;;;;;;;;5011276;28;20345;-70
2023/11/14 07:21:46;;;;;;;;;;;;;;;;;;5009944;28;20344;-70
2023/11/14 07:24:13;;;;;;;;;;;;;;;;;;5010755;28;20024;-70
2023/11/14 07:26:40;;;;;;;;;;;;;;;;;;5007660;28;20091;-69
2023/11/14 07:29:07;;;;;;;;;;;;;;;;;;5011114;28;19979;-71
2023/11/14 07:31:34;;;;;;;;;;;;;;;;;;5010864;28;20455;-71
2023/11/14 07:34:02;;;;;;;;;;;;;;;;;;5006767;28;19925;-70
2023/11/14 07:36:29;;;;;;;;;;;;;;;;;;5012420;28;19933;-77
2023/11/14 07:38:56;;;;;;;;;;;;;;;;;;5012739;28;20466;-75
2023/11/14 07:41:23;;;;;;;;;;;;;;;;;;5010102;28;19969;-71
2023/11/14 07:43:50;;;;;;;;;;;;;;;;;;5008516;28;19925;-71
2023/11/14 07:46:17;;;;;;;;;;;;;;;;;;5010809;28;20301;-72
2023/11/14 07:48:44;;;;;;;;;;;;;;;;;;5012001;28;19936;-71
2023/11/14 07:51:11;;;;;;;;;;;;;;;;;;5010146;28;19934;-71
2023/11/14 07:53:38;;;;;;;;;;;;;;;;;;5012030;28;20012;-70
2023/11/14 07:56:05;;;;;;;;;;;;;;;;;;5013381;28;19925;-77
2023/11/14 07:58:32;;;;;;;;;;;;;;;;;;5002584;28;19934;-78
2023/11/14 08:00:59;;;;;;;;;;;;;;;;;;5004128;28;19929;-77
2023/11/14 08:03:26;;;;;;;;;;;;;;;;;;5009719;28;20008;-77
2023/11/14 08:05:53;;;;;;;;;;;;;;;;;;5002948;28;19961;-78
2023/11/14 08:08:20;;;;;;;;;;;;;;;;;;4998895;28;19968;-77
2023/11/14 08:10:47;;;;;;;;;;;;;;;;;;5008218;28;19956;-77
2023/11/14 08:13:16;;;;;;;;;;;;;;;;;;5005538;28;19952;-78
2023/11/14 08:15:42;;;;;;;;;;;;;;;;;;5006794;28;20400;-77
2023/11/14 08:18:10;;;;;;;;;;;;;;;;;;5010162;28;20460;-77
2023/11/14 08:20:36;;;;;;;;;;;;;;;;;;5009576;28;20012;-78
2023/11/14 08:23:03;;;;;;;;;;;;;;;;;;5002466;28;19936;-79
2023/11/14 08:25:31;;;;;;;;;;;;;;;;;;5010788;28;19972;-76
2023/11/14 08:27:58;;;;;;;;;;;;;;;;;;5009838;28;19932;-76
2023/11/14 08:30:27;;;;;;;;;;;;;;;;;;5009875;28;19925;-77
2023/11/14 08:32:54;;;;;;;;;;;;;;;;;;5007154;28;20509;-77
2023/11/14 08:35:24;;;;;;;;;;;;;;;;;;5007430;28;19933;-78
2023/11/14 08:37:52;;;;;;;;;;;;;;;;;;5007624;28;20399;-77
2023/11/14 08:40:19;;;;;;;;;;;;;;;;;;5010739;28;19925;-78
2023/11/14 08:42:49;;;;;;;;;;;;;;;;;;5009866;28;19968;-78
2023/11/14 08:45:16;;;;;;;;;;;;;;;;;;5009471;28;19932;-78
2023/11/14 08:47:43;;;;;;;;;;;;;;;;;;5011869;28;19931;-76
2023/11/14 08:50:10;;;;;;;;;;;;;;;;;;5007744;28;20267;-79
2023/11/14 08:52:38;;;;;;;;;;;;;;;;;;5006086;28;19972;-79
2023/11/14 08:55:06;;;;;;;;;;;;;;;;;;5010249;28;20040;-78
2023/11/14 08:57:33;;;;;;;;;;;;;;;;;;5008336;28;19941;-79
2023/11/14 09:00:00;;;;;;;;;;;;;;;;;;5004567;28;19931;-74
2023/11/14 09:02:27;;;;;;;;;;;;;;;;;;5030836;22;19925;-80
2023/11/14 09:04:54;;;;;;;;;;;;;;;;;;5069358;28;20492;-81
2023/11/14 09:07:20;;;;;;;;;;;;;;;;;;5066315;28;20340;-79
2023/11/14 09:09:47;;;;;;;;;;;;;;;;;;5063905;28;20015;-80
2023/11/14 09:12:14;;;;;;;;;;;;;;;;;;5070323;28;19924;-81
2023/11/14 09:14:41;;;;;;;;;;;;;;;;;;5064702;28;19972;-72
2023/11/14 09:17:10;;;;;;;;;;;;;;;;;;5064911;28;19924;-72
2023/11/14 09:19:37;;;;;;;;;;;;;;;;;;5064992;28;20591;-72
2023/11/14 09:22:05;;;;;;;;;;;;;;;;;;5077442;28;20006;-73
2023/11/14 09:24:32;;;;;;;;;;;;;;;;;;5072681;28;19959;-72
2023/11/14 09:26:59;;;;;;;;;;;;;;;;;;5067328;28;19972;-72
2023/11/14 09:29:26;;;;;;;;;;;;;;;;;;5065518;28;20021;-72
2023/11/14 09:31:53;;;;;;;;;;;;;;;;;;5065276;28;20433;-78
2023/11/14 09:34:19;;;;;;;;;;;;;;;;;;5068329;28;19970;-80
2023/11/14 09:36:47;;;;;;;;;;;;;;;;;;5064811;28;20023;-80
2023/11/14 09:39:14;;;;;;;;;;;;;;;;;;5068732;28;20403;-78
2023/11/14 09:41:41;;;;;;;;;;;;;;;;;;5072398;28;19924;-79
2023/11/14 09:44:09;;;;;;;;;;;;;;;;;;5069244;28;20457;-75
2023/11/14 09:46:37;;;;;;;;;;;;;;;;;;5068339;28;19929;-79
2023/11/14 09:49:04;;;;;;;;;;;;;;;;;;5067800;28;20122;-77
2023/11/14 09:51:32;;;;;;;;;;;;;;;;;;5073238;28;19932;-77
2023/11/14 09:53:59;;;;;;;;;;;;;;;;;;5069559;28;19924;-78
2023/11/14 09:56:26;;;;;;;;;;;;;;;;;;5067640;28;19999;-79
2023/11/14 09:58:55;;;;;;;;;;;;;;;;;;5071096;28;19955;-79
2023/11/14 10:01:23;;;;;;;;;;;;;;;;;;5073945;28;20342;-79
2023/11/14 10:03:49;;;;;;;;;;;;;;;;;;5074244;28;20015;-76
2023/11/14 10:06:17;;;;;;;;;;;;;;;;;;5073304;28;20007;-78
2023/11/14 10:08:44;;;;;;;;;;;;;;;;;;5069005;28;19924;-69
2023/11/14 10:11:11;;;;;;;;;;;;;;;;;;5071143;28;20003;-78
2023/11/14 10:13:39;;;;;;;;;;;;;;;;;;5073744;28;20003;-77
2023/11/14 10:16:07;;;;;;;;;;;;;;;;;;5073002;28;20376;-78
2023/11/14 10:18:34;;;;;;;;;;;;;;;;;;5071582;28;19929;-80
2023/11/14 10:21:01;;;;;;;;;;;;;;;;;;5071469;28;19982;-79
2023/11/14 10:23:28;;;;;;;;;;;;;;;;;;5069989;28;19924;-78
2023/11/14 10:25:55;;;;;;;;;;;;;;;;;;5073656;28;20008;-77
2023/11/14 10:28:21;;;;;;;;;;;;;;;;;;5070467;28;20011;-78
2023/11/14 10:30:49;;;;;;;;;;;;;;;;;;5072394;28;20007;-79
2023/11/14 10:33:16;;;;;;;;;;;;;;;;;;5065824;28;19928;-78
2023/11/14 10:35:45;;;;;;;;;;;;;;;;;;5072222;28;19924;-77
2023/11/14 10:38:12;;;;;;;;;;;;;;;;;;5067247;28;19932;-78
2023/11/14 10:40:39;;;;;;;;;;;;;;;;;;5069694;28;20015;-78
2023/11/14 10:43:05;;;;;;;;;;;;;;;;;;5069009;28;19925;-78
2023/11/14 10:45:32;;;;;;;;;;;;;;;;;;5069527;28;19931;-77
2023/11/14 10:47:59;;;;;;;;;;;;;;;;;;5069803;28;19925;-78
2023/11/14 10:50:26;;;;;;;;;;;;;;;;;;5066722;28;20365;-79
2023/11/14 10:52:53;;;;;;;;;;;;;;;;;;5070506;28;20307;-79
2023/11/14 10:55:20;;;;;;;;;;;;;;;;;;5071530;28;20011;-80
2023/11/14 10:57:47;;;;;;;;;;;;;;;;;;5069453;28;20403;-68
2023/11/14 11:00:14;;;;;;;;;;;;;;;;;;5070933;28;20458;-74
2023/11/14 11:02:41;;;;;;;;;;;;;;;;;;5071579;28;19985;-79
2023/11/14 11:05:09;;;;;;;;;;;;;;;;;;5072372;28;19925;-81
2023/11/14 11:07:36;;;;;;;;;;;;;;;;;;5069445;28;19928;-80
2023/11/14 11:10:06;;;;;;;;;;;;;;;;;;5074376;28;20019;-81
2023/11/14 11:12:33;;;;;;;;;;;;;;;;;;5052228;23;19936;-81
2023/11/14 11:15:00;;;;;;;;;;;;;;;;;;4999448;28;20025;-81
2023/11/14 11:17:27;;;;;;;;;;;;;;;;;;4983502;28;19933;-77
2023/11/14 11:19:55;;;;;;;;;;;;;;;;;;4986998;28;19929;-79
2023/11/14 11:22:22;;;;;;;;;;;;;;;;;;4987246;28;20013;-80
2023/11/14 11:24:49;;;;;;;;;;;;;;;;;;4984809;28;19988;-77
2023/11/14 11:27:18;;;;;;;;;;;;;;;;;;4984005;28;19932;-76
2023/11/14 11:29:45;;;;;;;;;;;;;;;;;;4989358;28;19926;-75
2023/11/14 11:32:11;;;;;;;;;;;;;;;;;;4990692;28;20021;-75
2023/11/14 11:34:37;;;;;;;;;;;;;;;;;;4981966;28;20009;-75
2023/11/14 11:37:04;;;;;;;;;;;;;;;;;;4981001;28;20032;-75
2023/11/14 11:39:31;;;;;;;;;;;;;;;;;;4983214;28;20583;-74
2023/11/14 11:41:59;;;;;;;;;;;;;;;;;;4986434;28;20057;-73
2023/11/14 11:44:26;;;;;;;;;;;;;;;;;;4982507;28;19965;-73
2023/11/14 11:46:53;;;;;;;;;;;;;;;;;;4986214;28;19926;-73
2023/11/14 11:49:22;;;;;;;;;;;;;;;;;;4985448;28;19972;-74
2023/11/14 11:51:49;;;;;;;;;;;;;;;;;;5001606;28;20381;-74
2023/11/14 11:54:16;;;;;;;;;;;;;;;;;;4988851;28;19933;-77
2023/11/14 11:56:44;;;;;;;;;;;;;;;;;;4987158;28;19925;-76
2023/11/14 11:59:12;;;;;;;;;;;;;;;;;;4982017;28;20359;-77
2023/11/14 12:01:41;;;;;;;;;;;;;;;;;;4981216;28;20200;-77
2023/11/14 12:04:08;;;;;;;;;;;;;;;;;;4982285;28;20337;-78
2023/11/14 12:06:35;;;;;;;;;;;;;;;;;;4981617;28;19934;-77
2023/11/14 12:09:02;;;;;;;;;;;;;;;;;;4987222;28;19926;-77
2023/11/14 12:11:34;;;;;;;;;;;;;;;;;;4993371;28;19929;-76
2023/11/14 12:14:01;;;;;;;;;;;;;;;;;;4988661;28;19925;-76
2023/11/14 12:16:28;;;;;;;;;;;;;;;;;;4982152;28;19941;-76
2023/11/14 12:18:55;;;;;;;;;;;;;;;;;;4983987;28;19984;-75
2023/11/14 12:21:22;;;;;;;;;;;;;;;;;;4994357;28;19980;-76
2023/11/14 12:23:50;;;;;;;;;;;;;;;;;;4991358;28;19930;-74
2023/11/14 12:26:17;;;;;;;;;;;;;;;;;;4991414;28;19926;-76
2023/11/14 12:28:44;;;;;;;;;;;;;;;;;;4993604;28;19965;-76
2023/11/14 12:31:12;;;;;;;;;;;;;;;;;;4989255;28;19934;-76
2023/11/14 12:33:39;;;;;;;;;;;;;;;;;;4977842;28;20341;-77
2023/11/14 12:36:07;;;;;;;;;;;;;;;;;;4986435;28;19969;-76
2023/11/14 12:38:34;;;;;;;;;;;;;;;;;;4985207;28;19930;-75
2023/11/14 12:41:01;;;;;;;;;;;;;;;;;;4981079;28;20012;-74
2023/11/14 12:43:28;;;;;;;;;;;;;;;;;;4990709;28;19925;-73
2023/11/14 12:45:55;;;;;;;;;;;;;;;;;;4993986;28;20024;-75
2023/11/14 12:48:22;;;;;;;;;;;;;;;;;;4990943;28;20000;-76
2023/11/14 12:50:49;;;;;;;;;;;;;;;;;;4991006;28;19926;-73
2023/11/14 12:53:16;;;;;;;;;;;;;;;;;;4988249;28;19926;-75
2023/11/14 12:55:44;;;;;;;;;;;;;;;;;;4986054;28;20353;-74
2023/11/14 12:58:11;;;;;;;;;;;;;;;;;;4983053;28;19957;-74
2023/11/14 13:00:38;;;;;;;;;;;;;;;;;;4989317;28;19926;-75
2023/11/14 13:03:05;;;;;;;;;;;;;;;;;;4987973;28;19980;-74
2023/11/14 13:05:32;;;;;;;;;;;;;;;;;;4989543;28;19972;-74
2023/11/14 13:07:59;;;;;;;;;;;;;;;;;;4990999;28;19965;-74
2023/11/14 13:10:27;;;;;;;;;;;;;;;;;;4990113;28;19945;-73
2023/11/14 13:12:54;;;;;;;;;;;;;;;;;;4985593;28;19932;-72
2023/11/14 13:15:21;;;;;;;;;;;;;;;;;;4988456;28;19960;-70
2023/11/14 13:17:48;;;;;;;;;;;;;;;;;;4991876;28;20415;-70
2023/11/14 13:20:15;;;;;;;;;;;;;;;;;;4990594;28;20479;-72
2023/11/14 13:22:42;;;;;;;;;;;;;;;;;;4990793;28;20372;-71
2023/11/14 13:25:09;;;;;;;;;;;;;;;;;;4991173;28;19935;-71
2023/11/14 13:27:36;;;;;;;;;;;;;;;;;;4992057;28;20016;-70
2023/11/14 13:30:03;;;;;;;;;;;;;;;;;;4990759;28;21466;-70
2023/11/14 13:32:31;;;;;;;;;;;;;;;;;;4985516;28;20452;-70
2023/11/14 13:34:58;;;;;;;;;;;;;;;;;;4992048;28;19942;-70
2023/11/14 13:37:25;;;;;;;;;;;;;;;;;;4992881;28;19926;-71
2023/11/14 13:39:53;;;;;;;;;;;;;;;;;;4991549;28;20020;-71
2023/11/14 13:42:19;;;;;;;;;;;;;;;;;;4992654;28;19937;-70
2023/11/14 13:44:46;;;;;;;;;;;;;;;;;;4990088;28;19927;-70
2023/11/14 13:47:13;;;;;;;;;;;;;;;;;;4992829;28;19926;-72
2023/11/14 13:49:40;;;;;;;;;;;;;;;;;;4994137;28;20389;-72
2023/11/14 13:52:07;;;;;;;;;;;;;;;;;;4985861;28;19929;-72
2023/11/14 13:54:34;;;;;;;;;;;;;;;;;;4993304;28;19980;-73
2023/11/14 13:57:03;;;;;;;;;;;;;;;;;;4992865;28;20361;-74
2023/11/14 13:59:30;;;;;;;;;;;;;;;;;;4996770;28;20369;-75
2023/11/14 14:01:57;;;;;;;;;;;;;;;;;;5004624;28;20032;-74
2023/11/14 14:04:24;;;;;;;;;;;;;;;;;;4998743;28;19988;-72
2023/11/14 14:06:51;;;;;;;;;;;;;;;;;;4992248;28;19925;-68
2023/11/14 14:09:19;;;;;;;;;;;;;;;;;;4992322;28;19926;-66
2023/11/14 14:11:46;;;;;;;;;;;;;;;;;;4989947;28;20012;-68
2023/11/14 14:14:13;;;;;;;;;;;;;;;;;;4992317;28;19953;-68
2023/11/14 14:16:41;;;;;;;;;;;;;;;;;;4990977;28;20024;-68
2023/11/14 14:19:09;;;;;;;;;;;;;;;;;;4991586;28;20013;-69
2023/11/14 14:21:36;;;;;;;;;;;;;;;;;;4990300;28;20013;-68
2023/11/14 14:24:03;;;;;;;;;;;;;;;;;;4991268;28;19926;-68
2023/11/14 14:26:31;;;;;;;;;;;;;;;;;;4991168;28;20423;-68
2023/11/14 14:28:58;;;;;;;;;;;;;;;;;;4995177;28;20384;-69
2023/11/14 14:31:25;;;;;;;;;;;;;;;;;;4992617;28;19926;-67
2023/11/14 14:33:52;;;;;;;;;;;;;;;;;;4991720;28;20316;-67
2023/11/14 14:36:22;;;;;;;;;;;;;;;;;;4989386;28;19926;-67
2023/11/14 14:38:49;;;;;;;;;;;;;;;;;;4991045;28;20392;-67
2023/11/14 14:41:16;;;;;;;;;;;;;;;;;;4992366;28;19946;-69
2023/11/14 14:43:47;;;;;;;;;;;;;;;;;;4993658;28;19965;-68
2023/11/14 14:46:14;;;;;;;;;;;;;;;;;;4993776;28;20348;-69
2023/11/14 14:48:41;;;;;;;;;;;;;;;;;;4990440;28;19933;-68
2023/11/14 14:51:09;;;;;;;;;;;;;;;;;;4993762;28;19929;-68
2023/11/14 14:53:36;;;;;;;;;;;;;;;;;;4991337;28;19960;-71
2023/11/14 14:56:03;;;;;;;;;;;;;;;;;;4985271;28;19949;-68
2023/11/14 14:58:30;;;;;;;;;;;;;;;;;;4992877;28;19925;-68
2023/11/14 15:00:57;;;;;;;;;;;;;;;;;;4994353;28;20359;-68
2023/11/14 15:03:25;;;;;;;;;;;;;;;;;;4990756;28;19953;-68
2023/11/14 15:05:52;;;;;;;;;;;;;;;;;;4989130;28;19925;-69
2023/11/14 15:08:19;;;;;;;;;;;;;;;;;;4991667;28;19930;-69
2023/11/14 15:10:46;;;;;;;;;;;;;;;;;;4990731;28;19940;-68
2023/11/14 15:13:13;;;;;;;;;;;;;;;;;;4992216;28;19981;-66
2023/11/14 15:15:41;;;;;;;;;;;;;;;;;;4990821;28;20041;-68
2023/11/14 15:18:08;;;;;;;;;;;;;;;;;;4994621;28;19933;-69
2023/11/14 15:20:35;;;;;;;;;;;;;;;;;;4984660;28;19944;-69
2023/11/14 15:23:03;;;;;;;;;;;;;;;;;;4991882;28;20381;-68
2023/11/14 15:25:30;;;;;;;;;;;;;;;;;;4987835;28;20448;-68
2023/11/14 15:27:57;;;;;;;;;;;;;;;;;;4984834;28;19937;-71
2023/11/14 15:30:24;;;;;;;;;;;;;;;;;;4988603;28;19933;-70
2023/11/14 15:32:51;;;;;;;;;;;;;;;;;;4986536;28;19927;-69
2023/11/14 15:35:19;;;;;;;;;;;;;;;;;;4987359;28;19981;-71
2023/11/14 15:37:49;;;;;;;;;;;;;;;;;;4986176;28;19926;-74
2023/11/14 15:40:18;;;;;;;;;;;;;;;;;;4986423;28;19926;-74
2023/11/14 15:42:45;;;;;;;;;;;;;;;;;;4980236;28;20022;-73
2023/11/14 15:45:12;;;;;;;;;;;;;;;;;;4974687;28;19980;-73
2023/11/14 15:47:39;;;;;;;;;;;;;;;;;;4993291;28;20116;-73
2023/11/14 15:50:06;;;;;;;;;;;;;;;;;;4984207;28;19926;-73
2023/11/14 15:52:34;;;;;;;;;;;;;;;;;;4982574;28;20278;-72
2023/11/14 15:55:04;;;;;;;;;;;;;;;;;;4991413;28;19925;-73
2023/11/14 15:57:32;;;;;;;;;;;;;;;;;;4988705;28;19960;-73
2023/11/14 15:59:59;;;;;;;;;;;;;;;;;;4992462;28;19949;-73
2023/11/14 16:02:26;;;;;;;;;;;;;;;;;;4989967;28;19933;-73
2023/11/14 16:04:53;;;;;;;;;;;;;;;;;;4991003;28;20397;-73
2023/11/14 16:07:20;;;;;;;;;;;;;;;;;;4988230;28;20389;-72
2023/11/14 16:09:47;;;;;;;;;;;;;;;;;;4992618;28;19929;-73
2023/11/14 16:12:17;;;;;;;;;;;;;;;;;;4985100;28;20041;-73
2023/11/14 16:14:44;;;;;;;;;;;;;;;;;;5022612;23;19932;-73
2023/11/14 16:17:12;;;;;;;;;;;;;;;;;;5032813;28;20294;-71
2023/11/14 16:19:39;;;;;;;;;;;;;;;;;;5029020;28;19925;-73
2023/11/14 16:22:06;;;;;;;;;;;;;;;;;;5029451;28;20362;-71
2023/11/14 16:24:33;;;;;;;;;;;;;;;;;;5030625;28;20043;-72
2023/11/14 16:27:00;;;;;;;;;;;;;;;;;;5028296;28;20391;-70
2023/11/14 16:29:28;;;;;;;;;;;;;;;;;;5031039;28;19925;-71
2023/11/14 16:31:55;;;;;;;;;;;;;;;;;;5024470;28;19983;-72
2023/11/14 16:34:22;;;;;;;;;;;;;;;;;;5028824;28;19929;-72
2023/11/14 16:36:49;;;;;;;;;;;;;;;;;;5027013;28;20003;-72
2023/11/14 16:39:16;;;;;;;;;;;;;;;;;;5030428;28;19925;-70
2023/11/14 16:41:43;;;;;;;;;;;;;;;;;;5025597;28;19932;-70
2023/11/14 16:44:11;;;;;;;;;;;;;;;;;;5028379;28;19972;-72